createdAt,value
2023-02-20T00:03:34.249Z,9.30
2023-02-20T00:08:38.083Z,9.30
2023-02-20T00:13:40.127Z,9.40
2023-02-20T00:18:42.711Z,9.30
2023-02-20T00:23:46.482Z,9.20
2023-02-20T00:28:48.557Z,9.10
2023-02-20T00:33:53.858Z,9.00
2023-02-20T00:38:57.536Z,9.00
2023-02-20T00:44:00.088Z,8.90
2023-02-20T00:49:02.380Z,8.80
2023-02-20T00:54:06.480Z,8.80
2023-02-20T00:59:08.769Z,8.70
2023-02-20T01:04:11.055Z,8.70
2023-02-20T01:09:15.106Z,8.60
2023-02-20T01:14:17.363Z,8.60
2023-02-20T01:19:19.944Z,8.50
2023-02-20T01:24:23.662Z,8.60
2023-02-20T01:29:25.891Z,8.60
2023-02-20T01:34:28.476Z,8.60
2023-02-20T01:39:32.510Z,8.50
2023-02-20T01:44:37.320Z,8.60
2023-02-20T01:49:42.422Z,8.60
2023-02-20T01:54:50.585Z,8.50
2023-02-20T01:59:56.914Z,8.40
2023-02-20T02:04:59.478Z,8.30
2023-02-20T02:10:08.384Z,8.20
2023-02-20T02:15:16.205Z,8.10
2023-02-20T02:20:47.142Z,8.10
2023-02-20T02:25:57.834Z,8.10
2023-02-20T02:31:36.288Z,8.00
2023-02-20T02:36:56.369Z,8.00
2023-02-20T02:42:07.933Z,8.00
2023-02-20T02:47:13.422Z,8.00
2023-02-20T02:52:37.963Z,8.10
2023-02-20T02:57:40.158Z,8.10
2023-02-20T03:02:47.642Z,8.10
2023-02-20T03:07:54.809Z,8.00
2023-02-20T03:12:58.351Z,7.80
2023-02-20T03:18:11.722Z,7.50
2023-02-20T03:23:19.486Z,7.50
2023-02-20T03:28:26.247Z,7.30
2023-02-20T03:33:54.108Z,7.10
2023-02-20T03:39:21.517Z,7.00
2023-02-20T03:44:25.834Z,7.20
2023-02-20T03:49:31.374Z,7.30
2023-02-20T03:54:36.516Z,7.10
2023-02-20T03:59:44.320Z,7.10
2023-02-20T04:04:51.236Z,7.10
2023-02-20T04:09:58.763Z,7.00
2023-02-20T04:15:02.124Z,7.10
2023-02-20T04:20:05.311Z,7.20
2023-02-20T04:25:15.500Z,7.10
2023-02-20T04:30:18.003Z,6.90
2023-02-20T04:35:22.696Z,6.80
2023-02-20T04:40:26.680Z,6.80
2023-02-20T04:45:29.188Z,6.80
2023-02-20T04:50:33.217Z,6.70
2023-02-20T04:55:37.483Z,6.70
2023-02-20T05:00:39.500Z,6.60
2023-02-20T05:05:41.812Z,6.50
2023-02-20T05:10:45.452Z,6.50
2023-02-20T05:15:48.097Z,6.30
2023-02-20T05:21:07.687Z,5.80
2023-02-20T05:26:12.884Z,5.50
2023-02-20T05:31:17.668Z,5.50
2023-02-20T05:36:20.239Z,5.20
2023-02-20T05:41:24.357Z,5.00
2023-02-20T05:46:26.924Z,5.10
2023-02-20T05:51:32.893Z,5.20
2023-02-20T05:56:37.388Z,5.30
2023-02-20T06:01:39.872Z,5.30
2023-02-20T06:06:43.326Z,5.30
2023-02-20T06:11:52.077Z,6.00
2023-02-20T06:16:54.545Z,6.50
2023-02-20T06:21:58.893Z,6.60
2023-02-20T06:27:02.513Z,6.70
2023-02-20T06:32:04.965Z,6.80
2023-02-20T06:37:07.367Z,6.70
2023-02-20T06:42:11.116Z,7.00
2023-02-20T06:47:13.669Z,7.20
2023-02-20T06:52:15.861Z,7.30
2023-02-20T06:57:20.145Z,7.40
2023-02-20T07:02:22.593Z,7.50
2023-02-20T07:07:24.597Z,7.50
2023-02-20T07:12:30.132Z,7.40
2023-02-20T07:17:32.162Z,7.50
2023-02-20T07:22:34.205Z,7.30
2023-02-20T07:27:37.965Z,6.80
2023-02-20T07:32:40.265Z,6.30
2023-02-20T07:37:42.571Z,6.10
2023-02-20T07:42:45.992Z,6.00
2023-02-20T07:47:47.984Z,5.90
2023-02-20T07:52:50.420Z,6.00
2023-02-20T07:57:58.304Z,6.50
2023-02-20T08:03:00.837Z,7.40
2023-02-20T08:08:02.971Z,8.10
2023-02-20T08:13:06.752Z,8.70
2023-02-20T08:18:22.078Z,9.40
2023-02-20T08:23:26.404Z,10.00
2023-02-20T08:28:30.021Z,10.20
2023-02-20T08:33:32.535Z,10.70
2023-02-20T08:38:36.586Z,11.10
2023-02-20T08:43:43.411Z,11.60
2023-02-20T08:48:46.584Z,12.00
2023-02-20T08:53:48.701Z,12.60
2023-02-20T08:58:52.280Z,12.30
2023-02-20T09:03:54.699Z,12.40
2023-02-20T09:08:57.230Z,13.30
2023-02-20T09:14:01.148Z,13.90
2023-02-20T09:19:03.680Z,14.60
2023-02-20T09:24:07.940Z,14.00
2023-02-20T09:29:11.629Z,13.30
2023-02-20T09:34:13.863Z,13.70
2023-02-20T09:39:18.149Z,13.90
2023-02-20T09:44:27.366Z,13.20
2023-02-20T09:49:34.296Z,13.30
2023-02-20T09:54:40.834Z,14.30
2023-02-20T09:59:49.064Z,14.40
2023-02-20T10:05:01.143Z,15.80
2023-02-20T10:10:19.485Z,17.00
2023-02-20T10:15:26.748Z,18.00
2023-02-20T10:20:39.206Z,18.60
2023-02-20T10:25:44.752Z,19.50
2023-02-20T10:30:52.583Z,19.90
2023-02-20T10:35:58.928Z,20.20
2023-02-20T10:41:07.439Z,19.20
2023-02-20T10:46:16.470Z,19.50
2023-02-20T10:51:23.378Z,20.70
2023-02-20T10:56:32.694Z,21.80
2023-02-20T11:01:37.603Z,22.20
2023-02-20T11:06:44.100Z,22.40
2023-02-20T11:11:47.734Z,22.90
2023-02-20T11:16:57.726Z,23.60
2023-02-20T11:22:00.116Z,24.50
2023-02-20T11:27:07.009Z,24.20
2023-02-20T11:32:33.074Z,23.40
2023-02-20T11:37:40.076Z,24.20
2023-02-20T11:42:47.552Z,23.80
2023-02-20T11:48:09.161Z,23.40
2023-02-20T11:53:21.449Z,21.20
2023-02-20T11:58:26.676Z,22.30
2023-02-20T12:03:33.203Z,23.00
2023-02-20T12:08:52.986Z,22.20
2023-02-20T12:13:58.224Z,20.90
2023-02-20T12:19:09.062Z,20.50
2023-02-20T12:24:28.421Z,22.50
2023-02-20T12:29:42.826Z,24.80
2023-02-20T12:35:01.232Z,25.50
2023-02-20T12:40:21.482Z,25.10
2023-02-20T12:45:31.312Z,25.40
2023-02-20T12:50:49.881Z,25.90
2023-02-20T12:56:01.968Z,25.50
2023-02-20T13:01:09.635Z,26.20
2023-02-20T13:06:23.986Z,26.80
2023-02-20T13:11:28.088Z,27.50
2023-02-20T13:16:35.801Z,27.70
2023-02-20T13:21:39.641Z,27.60
2023-02-20T13:26:53.718Z,28.00
2023-02-20T13:31:58.013Z,28.40
2023-02-20T13:37:02.288Z,29.50
2023-02-20T13:42:06.488Z,30.20
2023-02-20T13:47:36.487Z,28.30
2023-02-20T13:52:42.469Z,29.70
2023-02-20T13:57:48.361Z,29.20
2023-02-20T14:02:50.725Z,28.90
2023-02-20T14:07:55.033Z,29.50
2023-02-20T14:13:02.989Z,30.30
2023-02-20T14:18:05.803Z,30.50
2023-02-20T14:23:12.515Z,30.70
2023-02-20T14:28:16.961Z,30.60
2023-02-20T14:33:27.662Z,30.10
2023-02-20T14:38:44.316Z,29.50
2023-02-20T14:43:46.920Z,29.50
2023-02-20T14:48:49.339Z,28.40
2023-02-20T14:54:01.661Z,26.80
2023-02-20T14:59:22.254Z,26.00
2023-02-20T15:04:26.501Z,25.30
2023-02-20T15:09:40.403Z,25.30
2023-02-20T15:14:45.125Z,24.60
2023-02-20T15:19:47.806Z,24.20
2023-02-20T15:24:51.837Z,23.70
2023-02-20T15:30:13.554Z,22.70
2023-02-20T15:35:27.162Z,22.40
2023-02-20T15:40:33.300Z,21.80
2023-02-20T15:45:37.881Z,20.90
2023-02-20T15:50:40.322Z,19.30
2023-02-20T15:55:47.230Z,18.30
2023-02-20T16:00:51.049Z,17.40
2023-02-20T16:05:53.604Z,16.90
2023-02-20T16:10:58.400Z,16.80
2023-02-20T16:16:02.121Z,16.30
2023-02-20T16:21:07.060Z,16.20
2023-02-20T16:26:12.248Z,15.80
2023-02-20T16:31:16.317Z,15.00
2023-02-20T16:36:24.637Z,14.30
2023-02-20T16:41:35.660Z,13.60
2023-02-20T16:46:39.054Z,13.00
2023-02-20T16:51:49.011Z,12.60
2023-02-20T16:56:52.675Z,12.10
2023-02-20T17:01:55.239Z,11.80
2023-02-20T17:06:59.184Z,11.20
2023-02-20T17:12:03.449Z,11.10
2023-02-20T17:17:07.154Z,11.10
2023-02-20T17:22:12.117Z,10.80
2023-02-20T17:27:17.089Z,10.50
2023-02-20T17:32:20.877Z,10.20
2023-02-20T17:37:24.907Z,9.80
2023-02-20T17:42:31.534Z,9.80
2023-02-20T17:47:35.144Z,9.50
2023-02-20T17:52:42.328Z,9.40
2023-02-20T17:58:00.425Z,9.30
2023-02-20T18:03:03.761Z,9.20
2023-02-20T18:08:09.848Z,8.80
2023-02-20T18:13:16.452Z,8.80
2023-02-20T18:18:20.338Z,8.70
2023-02-20T18:23:25.806Z,8.50
2023-02-20T18:28:36.397Z,8.60
2023-02-20T18:33:41.062Z,8.60
2023-02-20T18:38:44.292Z,8.90
2023-02-20T18:43:50.178Z,9.10
2023-02-20T18:48:53.962Z,9.00
2023-02-20T18:53:58.018Z,8.60
2023-02-20T18:59:06.777Z,8.20
2023-02-20T19:04:10.037Z,7.90
2023-02-20T19:09:15.680Z,7.80
2023-02-20T19:14:22.418Z,7.80
2023-02-20T19:19:30.448Z,7.60
2023-02-20T19:24:35.282Z,7.30
2023-02-20T19:29:42.414Z,7.10
2023-02-20T19:34:45.473Z,7.00
2023-02-20T19:39:49.606Z,7.00
2023-02-20T19:44:56.450Z,6.90
2023-02-20T19:50:00.718Z,6.70
2023-02-20T19:55:06.430Z,6.60
2023-02-20T20:00:18.243Z,6.50
2023-02-20T20:05:24.429Z,6.40
2023-02-20T20:10:30.285Z,6.30
2023-02-20T20:15:37.763Z,6.20
2023-02-20T20:20:42.967Z,6.20
2023-02-20T20:25:47.669Z,6.30
2023-02-20T20:30:54.468Z,6.30
2023-02-20T20:36:49.304Z,6.20
2023-02-20T20:41:45.627Z,6.10
2023-02-20T20:46:51.337Z,6.30
2023-02-20T20:51:56.802Z,6.10
2023-02-20T20:57:01.883Z,6.00
2023-02-20T21:02:07.042Z,5.90
2023-02-20T21:07:11.283Z,5.80
2023-02-20T21:12:15.889Z,5.80
2023-02-20T21:29:25.690Z,5.80
2023-02-20T21:34:30.322Z,5.30
2023-02-20T21:39:33.198Z,5.20
2023-02-20T21:44:36.757Z,5.00
2023-02-20T21:49:50.257Z,4.80
2023-02-20T21:54:54.412Z,4.70
2023-02-20T21:59:55.528Z,4.50
2023-02-20T22:04:57.867Z,4.40
2023-02-20T22:10:17.779Z,4.30
2023-02-20T22:15:37.548Z,4.30
2023-02-20T22:20:58.940Z,4.40
2023-02-20T22:26:18.682Z,4.50
2023-02-20T22:31:38.420Z,4.40
2023-02-20T22:36:59.767Z,4.40
2023-02-20T22:42:23.306Z,4.40
2023-02-20T22:47:49.256Z,4.30
2023-02-20T22:53:10.597Z,4.50
2023-02-20T22:58:29.953Z,4.60
2023-02-20T23:03:49.632Z,4.30
2023-02-20T23:09:11.140Z,4.10
2023-02-20T23:14:30.474Z,3.80
2023-02-20T23:19:50.118Z,3.70
2023-02-20T23:25:11.180Z,3.50
2023-02-20T23:30:31.436Z,3.40
2023-02-20T23:35:51.026Z,3.50
2023-02-20T23:41:12.721Z,3.70
2023-02-20T23:46:32.284Z,3.60
2023-02-20T23:51:52.052Z,3.40
2023-02-20T23:57:13.406Z,3.20
